Time;durP1;ratioP1;P1;durP2;ratioP2;P2;SDS_P1;SDS_P2;PMS_P1;PMS_P2;Temp;Humidity;BMP_temperature;BMP_pressure;BME280_temperature;BME280_humidity;BME280_pressure;Samples;Min_cycle;Max_cycle;Signal;HPM_P1;HPM_P2
2022/06/11 00:01:51;;;;;;;;;;;;;;;26.74;38.05;94840.09;5058139;28;6981;-56
2022/06/11 00:04:22;;;;;;;;;;;;;;;26.73;37.82;94835.84;5032068;28;7437;-56
2022/06/11 00:07:02;;;;;;;;;;;;;;;26.73;37.39;94844.84;5050598;28;7696;-56
2022/06/11 00:10:02;;;;;;;;;;;;;;;26.72;38.34;94851.63;5039438;28;9131;-56
2022/06/11 00:12:40;;;;;;;;;;;;;;;26.70;37.65;94845.09;5023752;28;7874;-56
2022/06/11 00:15:06;;;;;;;;;;;;;;;26.69;38.29;94841.56;5040872;28;7418;-56
2022/06/11 00:17:49;;;;;;;;;;;;;;;26.69;38.09;94843.56;5033903;28;6965;-56
2022/06/11 00:20:24;;;;;;;;;;;;;;;26.68;38.36;94842.09;5030780;28;6989;-56
2022/06/11 00:22:58;;;;;;;;;;;;;;;26.67;37.88;94840.56;5065033;28;6964;-56
2022/06/11 00:25:25;;;;;;;;;;;;;;;26.66;37.92;94839.09;5041008;28;9257;-56
2022/06/11 00:28:07;;;;;;;;;;;;;;;26.66;38.02;94839.09;5035560;28;7275;-56
2022/06/11 00:30:43;;;;;;;;;;;;;;;26.65;37.59;94841.09;5033338;28;7291;-56
2022/06/11 00:33:10;;;;;;;;;;;;;;;26.63;38.08;94845.63;5034940;28;7053;-56
2022/06/11 00:35:43;;;;;;;;;;;;;;;26.65;37.76;94843.09;5030756;28;8785;-56
2022/06/11 00:38:12;;;;;;;;;;;;;;;26.62;37.96;94839.34;5027268;28;9114;-56
2022/06/11 00:40:47;;;;;;;;;;;;;;;26.62;37.53;94844.84;5032725;28;7186;-57
2022/06/11 00:43:29;;;;;;;;;;;;;;;26.60;37.69;94839.09;5030174;28;7245;-56
2022/06/11 00:46:19;;;;;;;;;;;;;;;26.62;37.64;94841.38;5030794;28;7303;-56
2022/06/11 00:48:48;;;;;;;;;;;;;;;26.60;38.50;94843.88;5021815;28;7088;-56
2022/06/11 00:51:26;;;;;;;;;;;;;;;26.57;37.65;94831.84;5060458;28;6986;-56
2022/06/11 00:54:03;;;;;;;;;;;;;;;26.58;37.86;94838.84;5028386;28;6982;-56
2022/06/11 00:56:40;;;;;;;;;;;;;;;26.58;38.02;94843.63;5031212;28;7483;-56
2022/06/11 00:59:13;;;;;;;;;;;;;;;26.57;38.02;94842.13;5049105;28;7087;-56
2022/06/11 01:01:39;;;;;;;;;;;;;;;26.58;38.45;94843.63;5028371;28;7050;-56
2022/06/11 01:04:59;;;;;;;;;;;;;;;26.57;37.72;94844.88;5044822;28;7295;-56
2022/06/11 01:07:51;;;;;;;;;;;;;;;26.57;38.15;94847.66;4989281;28;8883;-56
2022/06/11 01:10:42;;;;;;;;;;;;;;;26.56;38.66;94835.09;4990830;28;7206;-56
2022/06/11 01:13:32;;;;;;;;;;;;;;;26.54;38.30;94837.59;4986738;28;9463;-56
2022/06/11 01:16:25;;;;;;;;;;;;;;;26.53;38.09;94836.13;4972411;28;7247;-56
2022/06/11 01:19:25;;;;;;;;;;;;;;;26.51;38.46;94838.63;4985022;28;7006;-56
2022/06/11 01:22:15;;;;;;;;;;;;;;;26.51;37.92;94833.13;4975872;28;7304;-56
2022/06/11 01:24:58;;;;;;;;;;;;;;;26.50;37.70;94839.88;4975628;28;7839;-56
2022/06/11 01:27:46;;;;;;;;;;;;;;;26.50;37.98;94837.13;4985245;28;9573;-56
2022/06/11 01:30:52;;;;;;;;;;;;;;;26.48;37.94;94829.38;4989128;28;9493;-56
2022/06/11 01:33:55;;;;;;;;;;;;;;;26.49;37.60;94830.84;4988082;28;7193;-56
2022/06/11 01:36:26;;;;;;;;;;;;;;;26.46;37.81;94836.63;4914756;29;9164;-55
2022/06/11 01:39:13;;;;;;;;;;;;;;;26.47;38.62;94833.38;4918061;29;7192;-56
2022/06/11 01:41:46;;;;;;;;;;;;;;;26.48;37.84;94836.88;4921687;29;9411;-56
2022/06/11 01:44:36;;;;;;;;;;;;;;;26.47;37.92;94836.13;4963219;28;7012;-56
2022/06/11 01:47:17;;;;;;;;;;;;;;;26.46;38.48;94837.41;4970359;28;7324;-56
2022/06/11 01:49:48;;;;;;;;;;;;;;;26.46;38.20;94836.63;4979258;28;8901;-56
2022/06/11 01:52:25;;;;;;;;;;;;;;;26.45;37.76;94835.13;4969482;28;8259;-56
2022/06/11 01:54:51;;;;;;;;;;;;;;;26.45;38.75;94837.88;4984923;28;9084;-56
2022/06/11 01:57:22;;;;;;;;;;;;;;;26.44;38.03;94833.63;4952416;28;9111;-56
2022/06/11 01:59:48;;;;;;;;;;;;;;;26.43;38.70;94829.38;4966120;28;9088;-56
2022/06/11 02:02:38;;;;;;;;;;;;;;;26.43;37.87;94832.13;4959970;28;9452;-56
2022/06/11 02:05:25;;;;;;;;;;;;;;;26.42;38.44;94836.91;4981597;28;7342;-56
2022/06/11 02:08:24;;;;;;;;;;;;;;;26.42;38.87;94838.91;4980736;28;7202;-56
2022/06/11 02:11:34;;;;;;;;;;;;;;;26.42;38.77;94838.91;4971559;28;7540;-56
2022/06/11 02:14:12;;;;;;;;;;;;;;;26.39;38.61;94846.19;5032543;28;9417;-56
2022/06/11 02:16:42;;;;;;;;;;;;;;;26.38;38.97;94838.44;5037171;28;7164;-56
2022/06/11 02:19:15;;;;;;;;;;;;;;;26.39;38.61;94839.91;5039311;28;7438;-56
2022/06/11 02:21:54;;;;;;;;;;;;;;;26.39;38.58;94845.44;5038683;28;9181;-56
2022/06/11 02:24:51;;;;;;;;;;;;;;;26.37;38.25;94839.66;5027596;28;8298;-55
2022/06/11 02:27:24;;;;;;;;;;;;;;;26.37;38.32;94845.94;5057592;28;8712;-56
2022/06/11 02:29:54;;;;;;;;;;;;;;;26.36;38.35;94846.44;5031132;28;7323;-56
2022/06/11 02:32:26;;;;;;;;;;;;;;;26.36;38.90;94852.69;5044628;28;7313;-56
2022/06/11 02:35:50;;;;;;;;;;;;;;;26.34;37.89;94848.97;5032493;28;7467;-55
2022/06/11 02:38:29;;;;;;;;;;;;;;;26.33;38.92;94855.72;4946724;28;7317;-56
2022/06/11 02:41:23;;;;;;;;;;;;;;;26.33;38.12;94855.72;4953015;28;9665;-56
2022/06/11 02:43:50;;;;;;;;;;;;;;;26.30;38.51;94849.22;4967565;28;9099;-56
2022/06/11 02:46:43;;;;;;;;;;;;;;;26.30;38.31;94845.69;4980315;28;9028;-56
2022/06/11 02:49:18;;;;;;;;;;;;;;;26.30;39.05;94863.00;4974875;28;7572;-56
2022/06/11 02:52:10;;;;;;;;;;;;;;;26.29;38.58;94858.00;4968708;28;7634;-56
2022/06/11 02:54:37;;;;;;;;;;;;;;;26.29;39.02;94855.25;4971876;28;7597;-56
2022/06/11 02:57:07;;;;;;;;;;;;;;;26.28;38.68;94853.72;4973794;28;7395;-56
2022/06/11 02:59:33;;;;;;;;;;;;;;;26.27;39.08;94861.25;4971243;28;8715;-56
2022/06/11 03:01:59;;;;;;;;;;;;;;;26.25;38.87;94857.50;4970074;28;9108;-56
2022/06/11 03:04:54;;;;;;;;;;;;;;;26.27;38.63;94857.75;4949803;28;7285;-56
2022/06/11 03:07:32;;;;;;;;;;;;;;;26.26;38.80;94851.47;5002010;28;7535;-56
2022/06/11 03:10:00;;;;;;;;;;;;;;;26.26;39.07;94856.22;4991803;28;7547;-55
2022/06/11 03:12:44;;;;;;;;;;;;;;;26.25;39.00;94861.03;5017733;28;8420;-56
2022/06/11 03:15:41;;;;;;;;;;;;;;;26.25;38.17;94866.53;5012566;28;9173;-56
2022/06/11 03:18:20;;;;;;;;;;;;;;;26.25;38.33;94861.03;5028403;28;9060;-56
2022/06/11 03:20:53;;;;;;;;;;;;;;;26.25;38.92;94865.78;5007317;28;7242;-55
2022/06/11 03:23:26;;;;;;;;;;;;;;;26.25;38.88;94871.28;5024725;28;7258;-55
2022/06/11 03:25:54;;;;;;;;;;;;;;;26.23;38.67;94876.56;5018251;28;8804;-56
2022/06/11 03:28:51;;;;;;;;;;;;;;;26.23;38.14;94869.03;5011044;28;9220;-55
2022/06/11 03:31:18;;;;;;;;;;;;;;;26.22;38.49;94872.28;4936141;28;9140;-56
2022/06/11 03:33:57;;;;;;;;;;;;;;;26.23;38.77;94871.03;4936897;28;8709;-56
2022/06/11 03:36:26;;;;;;;;;;;;;;;26.22;38.32;94884.06;4953876;28;7111;-56
2022/06/11 03:39:03;;;;;;;;;;;;;;;26.21;38.39;94876.31;4937130;28;9245;-55
2022/06/11 03:41:30;;;;;;;;;;;;;;;26.21;38.12;94881.81;4951031;28;8874;-56
2022/06/11 03:44:17;;;;;;;;;;;;;;;26.18;38.41;94875.31;4943573;28;9769;-56
2022/06/11 03:46:52;;;;;;;;;;;;;;;26.19;38.52;94881.59;4948016;28;9466;-56
2022/06/11 03:49:20;;;;;;;;;;;;;;;26.18;38.00;94878.06;4954236;28;7566;-56
2022/06/11 03:51:48;;;;;;;;;;;;;;;26.16;39.42;94875.78;4942647;28;9168;-56
2022/06/11 03:54:17;;;;;;;;;;;;;;;26.14;38.82;94878.31;4953508;28;7884;-56
2022/06/11 03:56:46;;;;;;;;;;;;;;;26.15;38.18;94879.81;4961069;28;7231;-56
2022/06/11 03:59:15;;;;;;;;;;;;;;;26.14;38.70;94885.84;4949046;28;7719;-56
2022/06/11 04:01:45;;;;;;;;;;;;;;;26.15;38.55;94884.56;4963787;28;7152;-56
2022/06/11 04:04:14;;;;;;;;;;;;;;;26.16;38.49;94897.84;4947764;28;8092;-56
2022/06/11 04:06:44;;;;;;;;;;;;;;;26.15;38.51;94895.59;4949002;28;9094;-56
2022/06/11 04:09:23;;;;;;;;;;;;;;;26.14;39.02;94894.13;5029957;28;9015;-56
2022/06/11 04:12:01;;;;;;;;;;;;;;;26.13;39.00;94890.59;5029834;28;7207;-56
2022/06/11 04:14:33;;;;;;;;;;;;;;;26.13;38.58;94893.34;5059784;28;7262;-56
2022/06/11 04:17:10;;;;;;;;;;;;;;;26.14;38.83;94894.13;5044739;28;9435;-56
2022/06/11 04:19:48;;;;;;;;;;;;;;;26.13;38.07;94892.59;5033823;28;7698;-56
2022/06/11 04:22:21;;;;;;;;;;;;;;;26.14;38.60;94892.09;5033990;28;7599;-56
2022/06/11 04:25:04;;;;;;;;;;;;;;;26.12;38.30;94891.84;5049763;28;9118;-56
2022/06/11 04:27:33;;;;;;;;;;;;;;;26.12;38.95;94891.84;5017608;28;7232;-56
2022/06/11 04:30:06;;;;;;;;;;;;;;;26.13;38.84;94884.31;5027143;28;7199;-55
2022/06/11 04:32:45;;;;;;;;;;;;;;;26.11;38.27;94889.59;5059194;28;7247;-55
2022/06/11 04:35:17;;;;;;;;;;;;;;;26.09;38.37;94890.09;5032582;28;7248;-56
2022/06/11 04:37:53;;;;;;;;;;;;;;;26.10;38.35;94888.06;5031744;28;7257;-56
2022/06/11 04:40:19;;;;;;;;;;;;;;;26.14;38.61;94889.34;5057195;28;7220;-56
2022/06/11 04:42:47;;;;;;;;;;;;;;;26.11;38.45;94884.84;5030512;28;7131;-56
2022/06/11 04:45:18;;;;;;;;;;;;;;;26.14;39.26;94891.34;5045689;28;8494;-56
2022/06/11 04:47:53;;;;;;;;;;;;;;;26.14;38.23;94899.63;5031422;28;9278;-56
2022/06/11 04:50:22;;;;;;;;;;;;;;;26.13;38.84;94896.13;5053350;28;7056;-56
2022/06/11 04:52:51;;;;;;;;;;;;;;;26.16;38.54;94900.59;5028136;28;7667;-56
2022/06/11 04:55:18;;;;;;;;;;;;;;;26.16;38.99;94900.59;5054440;28;8241;-56
2022/06/11 04:57:45;;;;;;;;;;;;;;;26.15;38.51;94899.13;5044877;28;8409;-56
2022/06/11 05:00:19;;;;;;;;;;;;;;;26.17;39.04;94904.88;5033939;28;9033;-56
2022/06/11 05:02:51;;;;;;;;;;;;;;;26.15;38.76;94901.88;5031819;28;7313;-56
2022/06/11 05:05:18;;;;;;;;;;;;;;;26.16;38.74;94897.84;5031512;28;9085;-56
2022/06/11 05:07:45;;;;;;;;;;;;;;;26.14;38.63;94903.13;5059426;28;7231;-56
2022/06/11 05:10:15;;;;;;;;;;;;;;;26.11;38.33;94904.13;5038842;28;7511;-56
2022/06/11 05:12:48;;;;;;;;;;;;;;;26.08;39.29;94907.09;5027593;28;9489;-56
2022/06/11 05:15:22;;;;;;;;;;;;;;;26.07;38.83;94906.38;5047596;28;9651;-56
2022/06/11 05:17:51;;;;;;;;;;;;;;;26.06;38.76;94902.09;5032043;28;7127;-56
2022/06/11 05:20:18;;;;;;;;;;;;;;;26.03;38.66;94908.59;5064881;28;9000;-56
2022/06/11 05:22:47;;;;;;;;;;;;;;;26.05;39.53;94914.38;5030392;28;6967;-56
2022/06/11 05:25:18;;;;;;;;;;;;;;;26.04;39.48;94912.88;5064602;28;6978;-56
2022/06/11 05:27:54;;;;;;;;;;;;;;;26.05;39.28;94900.59;5030513;28;9078;-56
2022/06/11 05:30:28;;;;;;;;;;;;;;;26.02;39.47;94906.34;5027945;28;7167;-56
2022/06/11 05:32:58;;;;;;;;;;;;;;;26.02;39.63;94906.34;5057130;28;7237;-56
2022/06/11 05:35:35;;;;;;;;;;;;;;;26.02;39.11;94903.59;5036207;28;7266;-56
2022/06/11 05:38:08;;;;;;;;;;;;;;;26.01;39.51;94913.88;5027238;28;9053;-56
2022/06/11 05:40:38;;;;;;;;;;;;;;;26.01;39.48;94916.63;5032791;28;7350;-56
2022/06/11 05:43:12;;;;;;;;;;;;;;;26.00;39.52;94911.63;5031595;28;9068;-55
2022/06/11 05:46:20;;;;;;;;;;;;;;;26.01;39.35;94913.88;5033151;28;9067;-55
2022/06/11 05:49:04;;;;;;;;;;;;;;;26.00;38.97;94917.13;5014693;28;7189;-57
2022/06/11 05:51:40;;;;;;;;;;;;;;;26.02;39.54;94920.13;4996293;28;7368;-57
2022/06/11 05:54:24;;;;;;;;;;;;;;;25.99;40.15;94910.84;5001021;28;7232;-58
2022/06/11 05:56:51;;;;;;;;;;;;;;;26.01;40.01;94924.88;4995250;28;7329;-57
2022/06/11 05:59:26;;;;;;;;;;;;;;;26.01;39.50;94918.66;5025898;28;7208;-57
2022/06/11 06:02:08;;;;;;;;;;;;;;;26.01;39.15;94918.66;5003916;28;9275;-58
2022/06/11 06:04:39;;;;;;;;;;;;;;;26.00;38.97;94917.88;5018031;28;9877;-58
2022/06/11 06:07:09;;;;;;;;;;;;;;;26.01;39.65;94915.88;4991824;28;9141;-58
2022/06/11 06:09:41;;;;;;;;;;;;;;;26.02;39.82;94920.91;5010207;28;9070;-57
2022/06/11 06:12:08;;;;;;;;;;;;;;;26.02;39.12;94920.91;4989360;28;7058;-57
2022/06/11 06:14:37;;;;;;;;;;;;;;;26.03;40.06;94918.91;5011444;28;7331;-57
2022/06/11 06:17:03;;;;;;;;;;;;;;;26.03;39.63;94918.91;5008007;28;7276;-57
2022/06/11 06:19:29;;;;;;;;;;;;;;;26.03;39.98;94921.66;5017178;28;9020;-57
2022/06/11 06:21:55;;;;;;;;;;;;;;;26.04;39.80;94923.91;5046969;28;9058;-57
2022/06/11 06:24:23;;;;;;;;;;;;;;;26.03;39.77;94924.41;5042674;28;7350;-57
2022/06/11 06:26:51;;;;;;;;;;;;;;;26.01;39.90;94922.13;5045564;28;9119;-57
2022/06/11 06:29:23;;;;;;;;;;;;;;;26.04;39.31;94926.66;5064875;28;7051;-57
2022/06/11 06:31:49;;;;;;;;;;;;;;;26.04;39.95;94915.63;5041768;28;9098;-57
2022/06/11 06:34:18;;;;;;;;;;;;;;;26.03;39.92;94922.38;5060431;28;7225;-57
2022/06/11 06:36:46;;;;;;;;;;;;;;;26.03;38.98;94922.38;5044726;28;6993;-57
2022/06/11 06:39:14;;;;;;;;;;;;;;;26.02;40.08;94920.13;5055736;28;7435;-58
2022/06/11 06:41:43;;;;;;;;;;;;;;;26.04;40.66;94917.63;5021026;28;9018;-57
2022/06/11 06:44:18;;;;;;;;;;;;;;;26.04;39.41;94923.91;5032609;28;9171;-57
2022/06/11 06:46:55;;;;;;;;;;;;;;;26.02;39.72;94923.66;5034039;28;6994;-57
2022/06/11 06:49:30;;;;;;;;;;;;;;;26.03;39.67;94922.38;5037117;28;9000;-57
2022/06/11 06:51:58;;;;;;;;;;;;;;;26.03;40.20;94921.66;5041766;28;9043;-57
2022/06/11 06:54:24;;;;;;;;;;;;;;;26.03;40.41;94927.16;5054121;28;7222;-57
2022/06/11 06:56:50;;;;;;;;;;;;;;;26.02;39.47;94923.66;5037167;28;9591;-57
2022/06/11 06:59:18;;;;;;;;;;;;;;;26.04;40.55;94934.94;5035221;28;7498;-57
2022/06/11 07:01:45;;;;;;;;;;;;;;;26.04;40.10;94929.41;5024468;28;7230;-58
2022/06/11 07:04:12;;;;;;;;;;;;;;;26.03;40.74;94927.91;5016117;28;6989;-58
2022/06/11 07:06:41;;;;;;;;;;;;;;;26.04;40.32;94934.94;5016900;28;7036;-58
2022/06/11 07:09:08;;;;;;;;;;;;;;;26.05;40.48;94933.69;5034260;28;7223;-58
2022/06/11 07:11:35;;;;;;;;;;;;;;;26.05;40.10;94936.44;5020217;28;7329;-58
2022/06/11 07:14:04;;;;;;;;;;;;;;;26.05;40.72;94944.72;5020704;28;6999;-58
2022/06/11 07:16:42;;;;;;;;;;;;;;;26.05;40.66;94933.69;5012786;28;9666;-58
2022/06/11 07:19:19;;;;;;;;;;;;;;;26.07;41.37;94942.22;5027766;28;6983;-58
2022/06/11 07:21:52;;;;;;;;;;;;;;;26.10;41.02;94945.97;5012886;28;7087;-58
2022/06/11 07:24:24;;;;;;;;;;;;;;;26.10;41.30;94943.22;5006387;28;7099;-58
2022/06/11 07:26:56;;;;;;;;;;;;;;;26.10;41.17;94943.22;5013059;28;6997;-58
2022/06/11 07:29:34;;;;;;;;;;;;;;;26.13;41.13;94944.97;5014047;28;7333;-58
2022/06/11 07:32:06;;;;;;;;;;;;;;;26.14;41.06;94946.50;5013694;28;7501;-58
2022/06/11 07:34:39;;;;;;;;;;;;;;;26.13;40.36;94945.75;5019282;28;7227;-59
2022/06/11 07:37:06;;;;;;;;;;;;;;;26.15;40.42;94939.72;5031241;28;8902;-58
2022/06/11 07:39:33;;;;;;;;;;;;;;;26.16;40.97;94946.75;5029769;28;7195;-58
2022/06/11 07:42:00;;;;;;;;;;;;;;;26.14;40.99;94944.47;5043376;28;9061;-58
2022/06/11 07:44:45;;;;;;;;;;;;;;;26.14;40.65;94944.47;5019335;28;6970;-58
2022/06/11 07:47:13;;;;;;;;;;;;;;;26.14;40.46;94952.00;5036452;28;7528;-58
2022/06/11 07:49:39;;;;;;;;;;;;;;;26.14;40.93;94940.97;5041950;28;7229;-58
2022/06/11 07:52:06;;;;;;;;;;;;;;;26.15;40.53;94948.00;5021859;28;9122;-58
2022/06/11 07:54:45;;;;;;;;;;;;;;;26.13;41.17;94942.97;5020776;28;6980;-58
2022/06/11 07:57:11;;;;;;;;;;;;;;;26.12;40.22;94941.47;5036762;28;7250;-58
2022/06/11 07:59:37;;;;;;;;;;;;;;;26.16;40.52;94952.25;5059120;28;8796;-58
2022/06/11 08:02:34;;;;;;;;;;;;;;;26.14;40.14;94940.97;5036099;28;9080;-58
2022/06/11 08:05:11;;;;;;;;;;;;;;;26.15;40.74;94945.22;4971657;28;7055;-58
2022/06/11 08:07:39;;;;;;;;;;;;;;;26.17;40.89;94954.50;4959783;28;7183;-58
2022/06/11 08:10:08;;;;;;;;;;;;;;;26.18;40.77;94949.75;4973316;28;7223;-58
2022/06/11 08:12:34;;;;;;;;;;;;;;;26.16;40.20;94947.47;4975971;28;8649;-58
2022/06/11 08:15:05;;;;;;;;;;;;;;;26.15;40.19;94945.22;4978246;28;7050;-58
2022/06/11 08:17:41;;;;;;;;;;;;;;;26.20;40.46;94954.75;4991007;28;8583;-58
2022/06/11 08:20:12;;;;;;;;;;;;;;;26.16;41.05;94944.72;4974928;28;7108;-58
2022/06/11 08:22:38;;;;;;;;;;;;;;;26.20;40.98;94946.50;4983427;28;9192;-58
2022/06/11 08:25:04;;;;;;;;;;;;;;;26.20;40.47;94946.50;4957040;28;8781;-58
2022/06/11 08:27:31;;;;;;;;;;;;;;;26.21;40.22;94948.72;4953775;28;7582;-58
2022/06/11 08:29:57;;;;;;;;;;;;;;;26.15;40.71;94948.75;4966288;28;9046;-58
2022/06/11 08:32:25;;;;;;;;;;;;;;;26.20;40.90;94947.25;4961450;28;7020;-58
2022/06/11 08:34:53;;;;;;;;;;;;;;;26.19;39.95;94945.72;4963139;28;7218;-58
2022/06/11 08:37:21;;;;;;;;;;;;;;;26.21;40.16;94956.28;4969870;28;7066;-58
2022/06/11 08:39:47;;;;;;;;;;;;;;;26.22;39.83;94943.97;4983645;28;9168;-58
2022/06/11 08:42:42;;;;;;;;;;;;;;;26.21;40.03;94945.25;5010301;28;7336;-58
2022/06/11 08:45:20;;;;;;;;;;;;;;;26.22;40.71;94946.72;5025924;28;7778;-58
2022/06/11 08:48:01;;;;;;;;;;;;;;;26.23;40.43;94945.50;5029981;28;9158;-58
2022/06/11 08:50:36;;;;;;;;;;;;;;;26.23;40.21;94948.97;5051034;28;7060;-58
2022/06/11 08:53:08;;;;;;;;;;;;;;;26.23;39.82;94948.97;5027778;28;8711;-58
2022/06/11 08:55:40;;;;;;;;;;;;;;;26.24;40.52;94944.22;5033511;28;7167;-58
2022/06/11 08:58:44;;;;;;;;;;;;;;;26.22;40.60;94941.22;5008753;28;6986;-58
2022/06/11 09:01:27;;;;;;;;;;;;;;;26.24;40.58;94947.75;4943592;28;7075;-57
2022/06/11 09:04:07;;;;;;;;;;;;;;;26.24;40.77;94946.97;4933197;28;8266;-57
2022/06/11 09:06:57;;;;;;;;;;;;;;;26.24;40.72;94938.72;4926785;28;7505;-57
2022/06/11 09:10:05;;;;;;;;;;;;;;;26.25;39.71;94935.47;4943249;28;7520;-57
2022/06/11 09:12:51;;;;;;;;;;;;;;;26.25;40.71;94940.22;4930740;28;9477;-57
2022/06/11 09:15:20;;;;;;;;;;;;;;;26.25;40.78;94938.22;4941202;28;7208;-57
2022/06/11 09:18:09;;;;;;;;;;;;;;;26.27;40.88;94937.72;4942240;28;9131;-57
2022/06/11 09:21:20;;;;;;;;;;;;;;;26.27;43.40;94935.72;4935753;28;8795;-57
2022/06/11 09:24:01;;;;;;;;;;;;;;;26.28;42.64;94933.69;4934289;28;8990;-57
2022/06/11 09:27:00;;;;;;;;;;;;;;;26.30;41.39;94939.44;4928553;28;9240;-57
2022/06/11 09:30:00;;;;;;;;;;;;;;;26.30;42.14;94934.69;4936470;28;6994;-57
2022/06/11 09:32:57;;;;;;;;;;;;;;;26.31;41.84;94936.22;4932409;29;7896;-57
2022/06/11 09:35:41;;;;;;;;;;;;;;;26.33;41.42;94943.97;4965847;28;9065;-57
2022/06/11 09:38:14;;;;;;;;;;;;;;;26.32;41.20;94936.97;5029374;28;7890;-58
2022/06/11 09:41:24;;;;;;;;;;;;;;;26.33;42.05;94939.22;5031971;28;8225;-57
2022/06/11 09:44:21;;;;;;;;;;;;;;;26.33;41.53;94938.47;4966706;28;9222;-57
2022/06/11 09:47:03;;;;;;;;;;;;;;;26.34;40.93;94942.72;4952213;28;7223;-57
2022/06/11 09:50:25;;;;;;;;;;;;;;;26.36;40.78;94940.22;4952942;28;9111;-57
2022/06/11 09:53:11;;;;;;;;;;;;;;;26.36;40.72;94942.97;4901511;29;9259;-57
2022/06/11 09:56:07;;;;;;;;;;;;;;;26.36;41.03;94943.72;4923713;29;7307;-57
2022/06/11 09:58:39;;;;;;;;;;;;;;;26.36;41.73;94948.50;4952185;29;7346;-57
2022/06/11 10:01:20;;;;;;;;;;;;;;;26.36;40.98;94934.72;4953880;28;7045;-57
2022/06/11 10:04:22;;;;;;;;;;;;;;;26.38;41.17;94951.50;4942444;29;7058;-57
2022/06/11 10:06:57;;;;;;;;;;;;;;;26.39;40.74;94941.97;4871889;29;9174;-57
2022/06/11 10:09:40;;;;;;;;;;;;;;;26.39;40.84;94939.97;4884173;29;9250;-57
2022/06/11 10:12:39;;;;;;;;;;;;;;;26.39;41.41;94934.44;4874479;29;7227;-57
2022/06/11 10:15:17;;;;;;;;;;;;;;;26.40;40.77;94933.19;4873825;29;7004;-57
2022/06/11 10:17:52;;;;;;;;;;;;;;;26.41;40.46;94939.44;4874816;29;7078;-58
2022/06/11 10:20:31;;;;;;;;;;;;;;;26.41;41.25;94934.69;4901439;29;7071;-58
2022/06/11 10:23:20;;;;;;;;;;;;;;;26.42;40.89;94930.69;4908355;29;6977;-57
2022/06/11 10:25:55;;;;;;;;;;;;;;;26.44;40.91;94935.69;4913187;29;9102;-57
2022/06/11 10:28:41;;;;;;;;;;;;;;;26.44;40.71;94932.94;4947736;29;8813;-58
2022/06/11 10:31:13;;;;;;;;;;;;;;;26.45;40.50;94934.44;4947278;29;8818;-57
2022/06/11 10:34:02;;;;;;;;;;;;;;;26.45;40.29;94937.19;4953378;28;9378;-57
2022/06/11 10:36:34;;;;;;;;;;;;;;;26.45;40.74;94928.91;4947131;29;7188;-57
2022/06/11 10:39:26;;;;;;;;;;;;;;;26.47;40.73;94932.66;4946919;29;9357;-57
2022/06/11 10:42:04;;;;;;;;;;;;;;;26.49;41.02;94929.44;4942297;28;7145;-58
2022/06/11 10:44:50;;;;;;;;;;;;;;;26.50;40.91;94928.16;4986475;28;7135;-57
2022/06/11 10:47:22;;;;;;;;;;;;;;;26.50;40.30;94930.91;4967756;28;8691;-57
2022/06/11 10:50:04;;;;;;;;;;;;;;;26.50;40.20;94926.16;4983233;28;8075;-58
2022/06/11 10:52:45;;;;;;;;;;;;;;;26.51;40.89;94921.41;4966896;28;7101;-57
2022/06/11 10:55:35;;;;;;;;;;;;;;;26.53;39.94;94922.41;4978991;28;7108;-57
2022/06/11 10:58:11;;;;;;;;;;;;;;;26.54;40.29;94921.13;4971876;28;9094;-57
2022/06/11 11:00:59;;;;;;;;;;;;;;;26.55;39.84;94919.88;4992618;28;7159;-57
2022/06/11 11:03:50;;;;;;;;;;;;;;;26.55;40.66;94921.88;5019434;28;8977;-58
2022/06/11 11:06:26;;;;;;;;;;;;;;;26.55;40.62;94919.13;5023363;28;7002;-57
2022/06/11 11:08:59;;;;;;;;;;;;;;;26.58;39.93;94915.34;5020652;28;9573;-57
2022/06/11 11:11:34;;;;;;;;;;;;;;;26.58;40.40;94916.09;5029545;28;8798;-57
2022/06/11 11:14:35;;;;;;;;;;;;;;;26.61;39.88;94919.88;5027527;28;9185;-57
2022/06/11 11:17:15;;;;;;;;;;;;;;;26.60;39.69;94910.84;5013465;28;9039;-58
2022/06/11 11:20:29;;;;;;;;;;;;;;;26.60;39.76;94908.06;5013745;28;8954;-58
2022/06/11 11:22:36;;;;;;;;;;;;;;;26.61;39.86;94909.59;5011538;28;7159;-58
2022/06/11 11:25:24;;;;;;;;;;;;;;;26.63;40.24;94911.84;5022285;28;7713;-57
2022/06/11 11:27:50;;;;;;;;;;;;;;;26.65;39.39;94909.31;5014676;28;9112;-57
2022/06/11 11:30:17;;;;;;;;;;;;;;;26.64;39.29;94903.03;5025039;28;9065;-57
2022/06/11 11:32:45;;;;;;;;;;;;;;;26.65;40.04;94912.06;5017784;28;7074;-57
2022/06/11 11:35:26;;;;;;;;;;;;;;;26.67;40.19;94907.56;5026534;28;7264;-58
2022/06/11 11:38:22;;;;;;;;;;;;;;;26.68;39.79;94909.06;4999247;28;7263;-58
2022/06/11 11:40:59;;;;;;;;;;;;;;;26.70;40.24;94908.56;4994562;28;7619;-58
2022/06/11 11:43:41;;;;;;;;;;;;;;;26.71;40.03;94901.78;5039852;28;7111;-57
2022/06/11 11:46:25;;;;;;;;;;;;;;;26.70;39.51;94901.03;5046258;28;9266;-58
2022/06/11 11:49:18;;;;;;;;;;;;;;;26.72;39.78;94897.75;5030467;28;7288;-57
2022/06/11 11:51:55;;;;;;;;;;;;;;;26.73;39.19;94908.31;5016925;28;6967;-57
2022/06/11 11:54:27;;;;;;;;;;;;;;;26.76;39.61;94903.81;5033156;28;9112;-57
2022/06/11 11:56:53;;;;;;;;;;;;;;;26.74;39.04;94896.03;5066880;28;9197;-57
2022/06/11 11:59:42;;;;;;;;;;;;;;;26.75;40.19;94896.78;5039745;28;7332;-58
2022/06/11 12:02:14;;;;;;;;;;;;;;;26.75;39.38;94891.28;5028724;28;7212;-57
2022/06/11 12:04:53;;;;;;;;;;;;;;;26.76;40.08;94898.28;5033281;28;7215;-57
2022/06/11 12:07:40;;;;;;;;;;;;;;;26.76;39.08;94896.28;5033824;28;7343;-57
2022/06/11 12:10:36;;;;;;;;;;;;;;;26.79;39.16;94883.47;5033107;28;7275;-57
2022/06/11 12:13:27;;;;;;;;;;;;;;;26.79;39.90;94880.72;5028929;28;8610;-57
2022/06/11 12:16:06;;;;;;;;;;;;;;;26.80;39.28;94887.72;5034312;28;9096;-58
2022/06/11 12:19:27;;;;;;;;;;;;;;;26.83;39.90;94889.47;5045807;28;7095;-57
2022/06/11 12:22:15;;;;;;;;;;;;;;;26.84;39.88;94888.22;4980744;28;8032;-58
2022/06/11 12:24:50;;;;;;;;;;;;;;;26.85;39.53;94878.69;4988353;28;9237;-58
2022/06/11 12:27:31;;;;;;;;;;;;;;;26.85;39.54;94875.94;5000810;28;7436;-58
2022/06/11 12:30:03;;;;;;;;;;;;;;;26.87;40.02;94873.41;4990969;28;7298;-58
2022/06/11 12:32:33;;;;;;;;;;;;;;;26.88;40.04;94878.41;4981321;28;7458;-58
2022/06/11 12:35:01;;;;;;;;;;;;;;;26.86;39.21;94883.69;4977402;28;7029;-58
2022/06/11 12:37:37;;;;;;;;;;;;;;;26.89;39.12;94879.16;4997545;28;9128;-58
2022/06/11 12:40:15;;;;;;;;;;;;;;;26.90;39.48;94881.41;4987889;28;6969;-58
2022/06/11 12:42:55;;;;;;;;;;;;;;;26.94;38.49;94874.88;4990779;28;7207;-58
2022/06/11 12:45:40;;;;;;;;;;;;;;;26.92;38.55;94878.88;4976575;28;9246;-58
2022/06/11 12:48:26;;;;;;;;;;;;;;;26.94;37.99;94881.16;4993481;28;9037;-58
2022/06/11 12:51:20;;;;;;;;;;;;;;;26.96;38.76;94870.38;4980767;28;9473;-58
2022/06/11 12:54:01;;;;;;;;;;;;;;;26.97;37.65;94877.38;4981216;28;7044;-58
2022/06/11 12:56:32;;;;;;;;;;;;;;;26.98;38.60;94881.66;4977195;28;6952;-58
2022/06/11 12:59:25;;;;;;;;;;;;;;;27.01;37.96;94879.88;5028641;28;7339;-58
2022/06/11 13:02:16;;;;;;;;;;;;;;;27.04;37.28;94876.84;5037313;28;8824;-58
2022/06/11 13:05:01;;;;;;;;;;;;;;;27.05;38.06;94877.59;5031943;28;9112;-58
2022/06/11 13:07:39;;;;;;;;;;;;;;;27.06;37.96;94870.81;5056290;28;7607;-58
2022/06/11 13:10:37;;;;;;;;;;;;;;;27.08;38.23;94874.56;5029752;28;9516;-58
2022/06/11 13:13:09;;;;;;;;;;;;;;;27.09;37.92;94869.81;5030502;28;7316;-58
2022/06/11 13:16:21;;;;;;;;;;;;;;;27.10;37.79;94858.25;5040891;28;9002;-58
2022/06/11 13:19:03;;;;;;;;;;;;;;;27.08;37.82;94877.31;5031567;28;7311;-58
2022/06/11 13:21:42;;;;;;;;;;;;;;;27.08;37.29;94871.81;5028864;28;7216;-58
2022/06/11 13:24:47;;;;;;;;;;;;;;;27.11;37.58;94867.28;5060433;28;9120;-58
2022/06/11 13:27:14;;;;;;;;;;;;;;;27.12;37.90;94866.03;4974212;28;7262;-58
2022/06/11 13:30:19;;;;;;;;;;;;;;;27.13;38.27;94859.22;4976075;28;7164;-58
2022/06/11 13:33:25;;;;;;;;;;;;;;;27.15;38.04;94867.75;4979046;28;7251;-58
2022/06/11 13:36:23;;;;;;;;;;;;;;;27.14;37.51;94872.56;4962433;28;9462;-58
2022/06/11 13:39:05;;;;;;;;;;;;;;;27.14;35.21;94867.03;4897126;29;7339;-58
2022/06/11 13:41:52;;;;;;;;;;;;;;;27.12;35.10;94858.47;4893196;29;9396;-58
2022/06/11 13:44:55;;;;;;;;;;;;;;;27.16;35.61;94858.22;4903750;29;8928;-58
2022/06/11 13:47:39;;;;;;;;;;;;;;;27.18;35.22;94850.94;4909123;29;8685;-58
2022/06/11 13:50:17;;;;;;;;;;;;;;;27.19;34.67;94859.94;4895957;29;7355;-58
2022/06/11 13:55:53;;;;;;;;;;;;;;;27.21;33.98;94849.91;4898355;29;7229;-58
2022/06/11 13:58:28;;;;;;;;;;;;;;;27.22;33.61;94847.88;4892425;29;7239;-58
2022/06/11 14:01:39;;;;;;;;;;;;;;;27.24;33.52;94851.66;4893969;29;9962;-58